sensor_id;sensor_type;location;lat;lon;timestamp;temperature;humidity
41457;DHT22;27197;51.752;5.220;2023-08-06T00:00:00;21.00;78.80
41457;DHT22;27197;51.752;5.220;2023-08-06T00:02:35;21.00;78.10
41457;DHT22;27197;51.752;5.220;2023-08-06T00:05:05;21.00;78.40
41457;DHT22;27197;51.752;5.220;2023-08-06T00:07:36;21.00;78.20
41457;DHT22;27197;51.752;5.220;2023-08-06T00:10:07;21.00;77.90
41457;DHT22;27197;51.752;5.220;2023-08-06T00:12:42;21.10;78.30
41457;DHT22;27197;51.752;5.220;2023-08-06T00:15:12;21.10;78.30
41457;DHT22;27197;51.752;5.220;2023-08-06T00:17:42;21.10;77.70
41457;DHT22;27197;51.752;5.220;2023-08-06T00:20:11;21.10;78.20
41457;DHT22;27197;51.752;5.220;2023-08-06T00:22:47;21.00;77.40
41457;DHT22;27197;51.752;5.220;2023-08-06T00:25:18;20.90;78.60
41457;DHT22;27197;51.752;5.220;2023-08-06T00:27:49;21.00;77.40
41457;DHT22;27197;51.752;5.220;2023-08-06T00:30:21;21.00;78.30
41457;DHT22;27197;51.752;5.220;2023-08-06T00:32:55;21.10;78.30
41457;DHT22;27197;51.752;5.220;2023-08-06T00:35:22;21.10;78.20
41457;DHT22;27197;51.752;5.220;2023-08-06T00:37:56;21.10;77.80
41457;DHT22;27197;51.752;5.220;2023-08-06T00:40:26;21.10;77.90
41457;DHT22;27197;51.752;5.220;2023-08-06T00:42:56;21.10;78.00
41457;DHT22;27197;51.752;5.220;2023-08-06T00:45:29;21.10;78.00
41457;DHT22;27197;51.752;5.220;2023-08-06T00:48:17;21.20;78.00
41457;DHT22;27197;51.752;5.220;2023-08-06T00:50:49;21.10;77.60
41457;DHT22;27197;51.752;5.220;2023-08-06T00:53:18;21.10;77.70
41457;DHT22;27197;51.752;5.220;2023-08-06T00:55:51;21.20;78.00
41457;DHT22;27197;51.752;5.220;2023-08-06T00:58:22;21.20;77.80
41457;DHT22;27197;51.752;5.220;2023-08-06T01:00:58;21.30;77.80
41457;DHT22;27197;51.752;5.220;2023-08-06T01:03:28;21.20;77.70
41457;DHT22;27197;51.752;5.220;2023-08-06T01:06:04;21.20;77.60
41457;DHT22;27197;51.752;5.220;2023-08-06T01:08:51;21.20;77.00
41457;DHT22;27197;51.752;5.220;2023-08-06T01:11:32;21.20;77.60
41457;DHT22;27197;51.752;5.220;2023-08-06T01:14:06;21.10;77.30
41457;DHT22;27197;51.752;5.220;2023-08-06T01:16:38;21.10;78.00
41457;DHT22;27197;51.752;5.220;2023-08-06T01:19:19;21.10;78.00
41457;DHT22;27197;51.752;5.220;2023-08-06T01:21:51;21.10;77.10
41457;DHT22;27197;51.752;5.220;2023-08-06T01:24:21;21.10;78.30
41457;DHT22;27197;51.752;5.220;2023-08-06T01:27:11;21.00;77.70
41457;DHT22;27197;51.752;5.220;2023-08-06T01:29:52;21.10;78.10
41457;DHT22;27197;51.752;5.220;2023-08-06T01:32:24;21.20;78.00
41457;DHT22;27197;51.752;5.220;2023-08-06T01:37:41;21.20;77.60
41457;DHT22;27197;51.752;5.220;2023-08-06T01:40:14;21.30;78.40
41457;DHT22;27197;51.752;5.220;2023-08-06T01:42:46;21.30;77.60
41457;DHT22;27197;51.752;5.220;2023-08-06T01:45:17;21.30;77.50
41457;DHT22;27197;51.752;5.220;2023-08-06T01:47:49;21.30;77.50
41457;DHT22;27197;51.752;5.220;2023-08-06T01:50:19;21.30;77.40
41457;DHT22;27197;51.752;5.220;2023-08-06T01:52:50;21.30;77.50
41457;DHT22;27197;51.752;5.220;2023-08-06T01:55:24;21.30;77.40
41457;DHT22;27197;51.752;5.220;2023-08-06T01:57:52;21.30;77.40
41457;DHT22;27197;51.752;5.220;2023-08-06T02:00:24;21.30;77.30
41457;DHT22;27197;51.752;5.220;2023-08-06T02:02:56;21.30;77.30
41457;DHT22;27197;51.752;5.220;2023-08-06T02:05:26;21.30;77.30
41457;DHT22;27197;51.752;5.220;2023-08-06T02:07:57;21.30;77.30
41457;DHT22;27197;51.752;5.220;2023-08-06T02:10:29;21.30;77.40
41457;DHT22;27197;51.752;5.220;2023-08-06T02:13:01;21.30;77.30
41457;DHT22;27197;51.752;5.220;2023-08-06T02:15:35;21.30;77.30
41457;DHT22;27197;51.752;5.220;2023-08-06T02:18:03;21.30;77.10
41457;DHT22;27197;51.752;5.220;2023-08-06T02:20:38;21.30;77.40
41457;DHT22;27197;51.752;5.220;2023-08-06T02:23:06;21.30;77.40
41457;DHT22;27197;51.752;5.220;2023-08-06T02:25:36;21.30;77.30
41457;DHT22;27197;51.752;5.220;2023-08-06T02:28:07;21.30;77.30
41457;DHT22;27197;51.752;5.220;2023-08-06T02:30:41;21.30;77.30
41457;DHT22;27197;51.752;5.220;2023-08-06T02:33:11;21.30;77.30
41457;DHT22;27197;51.752;5.220;2023-08-06T02:35:42;21.30;77.30
41457;DHT22;27197;51.752;5.220;2023-08-06T02:38:13;21.30;77.30
41457;DHT22;27197;51.752;5.220;2023-08-06T02:40:45;21.30;77.20
41457;DHT22;27197;51.752;5.220;2023-08-06T02:43:16;21.30;77.20
41457;DHT22;27197;51.752;5.220;2023-08-06T02:45:49;21.30;77.20
41457;DHT22;27197;51.752;5.220;2023-08-06T02:48:19;21.30;77.20
41457;DHT22;27197;51.752;5.220;2023-08-06T02:50:49;21.30;77.20
41457;DHT22;27197;51.752;5.220;2023-08-06T02:53:18;21.30;77.20
41457;DHT22;27197;51.752;5.220;2023-08-06T02:55:52;21.30;77.20
41457;DHT22;27197;51.752;5.220;2023-08-06T02:58:22;21.30;77.20
41457;DHT22;27197;51.752;5.220;2023-08-06T03:01:05;21.30;77.20
41457;DHT22;27197;51.752;5.220;2023-08-06T03:03:37;21.40;77.30
41457;DHT22;27197;51.752;5.220;2023-08-06T03:06:07;21.30;77.20
41457;DHT22;27197;51.752;5.220;2023-08-06T03:08:38;21.30;77.20
41457;DHT22;27197;51.752;5.220;2023-08-06T03:11:14;21.30;77.30
41457;DHT22;27197;51.752;5.220;2023-08-06T03:13:44;21.30;77.20
41457;DHT22;27197;51.752;5.220;2023-08-06T03:16:14;21.30;77.30
41457;DHT22;27197;51.752;5.220;2023-08-06T03:18:47;21.30;77.20
41457;DHT22;27197;51.752;5.220;2023-08-06T03:21:21;21.30;77.20
41457;DHT22;27197;51.752;5.220;2023-08-06T03:23:50;21.30;77.30
41457;DHT22;27197;51.752;5.220;2023-08-06T03:26:21;21.30;77.20
41457;DHT22;27197;51.752;5.220;2023-08-06T03:28:52;21.30;77.20
41457;DHT22;27197;51.752;5.220;2023-08-06T03:31:26;21.30;77.30
41457;DHT22;27197;51.752;5.220;2023-08-06T03:33:59;21.30;77.30
41457;DHT22;27197;51.752;5.220;2023-08-06T03:36:30;21.30;77.20
41457;DHT22;27197;51.752;5.220;2023-08-06T03:38:59;21.30;77.20
41457;DHT22;27197;51.752;5.220;2023-08-06T03:41:34;21.30;77.20
41457;DHT22;27197;51.752;5.220;2023-08-06T03:44:06;21.30;77.20
41457;DHT22;27197;51.752;5.220;2023-08-06T03:46:39;21.30;77.20
41457;DHT22;27197;51.752;5.220;2023-08-06T03:49:08;21.30;77.20
41457;DHT22;27197;51.752;5.220;2023-08-06T03:51:44;21.30;77.20
41457;DHT22;27197;51.752;5.220;2023-08-06T03:54:11;21.30;77.20
41457;DHT22;27197;51.752;5.220;2023-08-06T03:56:43;21.30;77.20
41457;DHT22;27197;51.752;5.220;2023-08-06T03:59:13;21.30;77.20
41457;DHT22;27197;51.752;5.220;2023-08-06T04:01:43;21.30;77.20
41457;DHT22;27197;51.752;5.220;2023-08-06T04:04:12;21.30;77.20
41457;DHT22;27197;51.752;5.220;2023-08-06T04:06:42;21.30;77.20
41457;DHT22;27197;51.752;5.220;2023-08-06T04:09:12;21.30;77.20
41457;DHT22;27197;51.752;5.220;2023-08-06T04:11:46;21.30;77.30
41457;DHT22;27197;51.752;5.220;2023-08-06T04:14:16;21.30;77.20
41457;DHT22;27197;51.752;5.220;2023-08-06T04:16:49;21.30;77.20
41457;DHT22;27197;51.752;5.220;2023-08-06T04:19:20;21.30;77.20
41457;DHT22;27197;51.752;5.220;2023-08-06T04:21:54;21.30;77.20
41457;DHT22;27197;51.752;5.220;2023-08-06T04:24:23;21.30;77.80
41457;DHT22;27197;51.752;5.220;2023-08-06T04:26:57;21.30;77.80
41457;DHT22;27197;51.752;5.220;2023-08-06T04:29:25;21.30;77.30
41457;DHT22;27197;51.752;5.220;2023-08-06T04:32:00;21.30;77.20
41457;DHT22;27197;51.752;5.220;2023-08-06T04:34:28;21.30;77.20
41457;DHT22;27197;51.752;5.220;2023-08-06T04:36:59;21.30;77.80
41457;DHT22;27197;51.752;5.220;2023-08-06T04:39:33;21.30;77.20
41457;DHT22;27197;51.752;5.220;2023-08-06T04:42:05;21.30;77.20
41457;DHT22;27197;51.752;5.220;2023-08-06T04:44:40;21.30;77.20
41457;DHT22;27197;51.752;5.220;2023-08-06T04:47:09;21.30;77.20
41457;DHT22;27197;51.752;5.220;2023-08-06T04:49:40;21.30;77.20
41457;DHT22;27197;51.752;5.220;2023-08-06T04:52:13;21.30;77.30
41457;DHT22;27197;51.752;5.220;2023-08-06T04:54:43;21.30;77.30
41457;DHT22;27197;51.752;5.220;2023-08-06T04:57:17;21.30;77.20
41457;DHT22;27197;51.752;5.220;2023-08-06T04:59:44;21.30;77.30
41457;DHT22;27197;51.752;5.220;2023-08-06T05:02:15;21.30;77.30
41457;DHT22;27197;51.752;5.220;2023-08-06T05:04:46;21.30;77.20
41457;DHT22;27197;51.752;5.220;2023-08-06T05:07:17;21.30;77.20
41457;DHT22;27197;51.752;5.220;2023-08-06T05:09:51;21.30;77.30
41457;DHT22;27197;51.752;5.220;2023-08-06T05:12:22;21.30;77.30
41457;DHT22;27197;51.752;5.220;2023-08-06T05:14:52;21.30;77.30
41457;DHT22;27197;51.752;5.220;2023-08-06T05:17:23;21.30;77.30
41457;DHT22;27197;51.752;5.220;2023-08-06T05:19:54;21.30;77.30
41457;DHT22;27197;51.752;5.220;2023-08-06T05:22:26;21.30;77.30
41457;DHT22;27197;51.752;5.220;2023-08-06T05:25:14;21.30;77.30
41457;DHT22;27197;51.752;5.220;2023-08-06T05:27:44;21.30;77.30
41457;DHT22;27197;51.752;5.220;2023-08-06T05:30:18;21.30;77.30
41457;DHT22;27197;51.752;5.220;2023-08-06T05:32:48;21.30;77.30
41457;DHT22;27197;51.752;5.220;2023-08-06T05:35:22;21.20;77.30
41457;DHT22;27197;51.752;5.220;2023-08-06T05:37:51;21.30;77.40
41457;DHT22;27197;51.752;5.220;2023-08-06T05:40:21;21.30;77.40
41457;DHT22;27197;51.752;5.220;2023-08-06T05:45:43;21.30;77.30
41457;DHT22;27197;51.752;5.220;2023-08-06T05:48:10;21.30;77.30
41457;DHT22;27197;51.752;5.220;2023-08-06T05:50:40;21.30;77.30
41457;DHT22;27197;51.752;5.220;2023-08-06T05:53:10;21.30;77.30
41457;DHT22;27197;51.752;5.220;2023-08-06T05:55:40;21.30;77.40
41457;DHT22;27197;51.752;5.220;2023-08-06T05:58:09;21.30;77.30
41457;DHT22;27197;51.752;5.220;2023-08-06T06:00:40;21.30;77.40
41457;DHT22;27197;51.752;5.220;2023-08-06T06:03:11;21.20;77.30
41457;DHT22;27197;51.752;5.220;2023-08-06T06:05:41;21.30;77.40
41457;DHT22;27197;51.752;5.220;2023-08-06T06:08:14;21.30;77.30
41457;DHT22;27197;51.752;5.220;2023-08-06T06:10:43;21.30;77.30
41457;DHT22;27197;51.752;5.220;2023-08-06T06:13:19;21.30;77.30
41457;DHT22;27197;51.752;5.220;2023-08-06T06:15:51;21.20;77.40
41457;DHT22;27197;51.752;5.220;2023-08-06T06:18:25;21.20;77.30
41457;DHT22;27197;51.752;5.220;2023-08-06T06:20:55;21.20;77.30
41457;DHT22;27197;51.752;5.220;2023-08-06T06:23:30;21.20;77.30
41457;DHT22;27197;51.752;5.220;2023-08-06T06:26:00;21.30;77.40
41457;DHT22;27197;51.752;5.220;2023-08-06T06:28:32;21.30;77.40
41457;DHT22;27197;51.752;5.220;2023-08-06T06:31:07;21.30;77.40
41457;DHT22;27197;51.752;5.220;2023-08-06T06:33:37;21.20;77.40
41457;DHT22;27197;51.752;5.220;2023-08-06T06:36:07;21.20;77.30
41457;DHT22;27197;51.752;5.220;2023-08-06T06:38:42;21.20;77.30
41457;DHT22;27197;51.752;5.220;2023-08-06T06:41:11;21.20;77.40
41457;DHT22;27197;51.752;5.220;2023-08-06T06:43:45;21.20;77.40
41457;DHT22;27197;51.752;5.220;2023-08-06T06:46:14;21.20;77.40
41457;DHT22;27197;51.752;5.220;2023-08-06T06:48:49;21.20;77.20
41457;DHT22;27197;51.752;5.220;2023-08-06T06:51:21;21.20;78.00
41457;DHT22;27197;51.752;5.220;2023-08-06T06:53:52;21.20;77.40
41457;DHT22;27197;51.752;5.220;2023-08-06T06:56:27;21.20;77.30
41457;DHT22;27197;51.752;5.220;2023-08-06T06:58:56;21.20;77.30
41457;DHT22;27197;51.752;5.220;2023-08-06T07:01:30;21.20;77.30
41457;DHT22;27197;51.752;5.220;2023-08-06T07:03:59;21.20;77.30
41457;DHT22;27197;51.752;5.220;2023-08-06T07:06:33;21.20;77.20
41457;DHT22;27197;51.752;5.220;2023-08-06T07:09:07;21.20;77.20
41457;DHT22;27197;51.752;5.220;2023-08-06T07:11:39;21.20;77.30
41457;DHT22;27197;51.752;5.220;2023-08-06T07:14:09;21.20;77.20
41457;DHT22;27197;51.752;5.220;2023-08-06T07:16:41;21.20;77.20
41457;DHT22;27197;51.752;5.220;2023-08-06T07:19:10;21.20;77.10
41457;DHT22;27197;51.752;5.220;2023-08-06T07:21:42;21.20;77.20
41457;DHT22;27197;51.752;5.220;2023-08-06T07:24:13;21.20;77.80
41457;DHT22;27197;51.752;5.220;2023-08-06T07:26:47;21.30;77.10
41457;DHT22;27197;51.752;5.220;2023-08-06T07:29:15;21.20;77.00
41457;DHT22;27197;51.752;5.220;2023-08-06T07:31:52;21.20;77.10
41457;DHT22;27197;51.752;5.220;2023-08-06T07:34:21;21.20;77.10
41457;DHT22;27197;51.752;5.220;2023-08-06T07:36:56;21.20;77.00
41457;DHT22;27197;51.752;5.220;2023-08-06T07:39:25;21.20;77.10
41457;DHT22;27197;51.752;5.220;2023-08-06T07:41:56;21.20;77.10
41457;DHT22;27197;51.752;5.220;2023-08-06T07:44:25;21.20;77.10
41457;DHT22;27197;51.752;5.220;2023-08-06T07:47:00;21.20;77.10
41457;DHT22;27197;51.752;5.220;2023-08-06T07:49:29;21.20;77.00
41457;DHT22;27197;51.752;5.220;2023-08-06T07:51:59;21.20;77.00
41457;DHT22;27197;51.752;5.220;2023-08-06T07:54:31;21.20;77.00
41457;DHT22;27197;51.752;5.220;2023-08-06T07:57:06;21.20;76.90
41457;DHT22;27197;51.752;5.220;2023-08-06T07:59:41;21.20;76.80
41457;DHT22;27197;51.752;5.220;2023-08-06T08:02:12;21.20;76.90
41457;DHT22;27197;51.752;5.220;2023-08-06T08:04:41;21.20;76.90
41457;DHT22;27197;51.752;5.220;2023-08-06T08:07:16;21.20;76.90
41457;DHT22;27197;51.752;5.220;2023-08-06T08:09:45;21.20;77.50
41457;DHT22;27197;51.752;5.220;2023-08-06T08:12:21;21.20;76.90
41457;DHT22;27197;51.752;5.220;2023-08-06T08:14:50;21.20;76.60
41457;DHT22;27197;51.752;5.220;2023-08-06T08:17:20;21.10;76.90
41457;DHT22;27197;51.752;5.220;2023-08-06T08:20:09;21.20;76.90
41457;DHT22;27197;51.752;5.220;2023-08-06T08:22:38;21.20;76.80
41457;DHT22;27197;51.752;5.220;2023-08-06T08:25:08;21.20;76.80
41457;DHT22;27197;51.752;5.220;2023-08-06T08:27:40;21.20;76.80
41457;DHT22;27197;51.752;5.220;2023-08-06T08:30:16;21.20;76.80
41457;DHT22;27197;51.752;5.220;2023-08-06T08:32:45;21.20;76.60
41457;DHT22;27197;51.752;5.220;2023-08-06T08:35:18;21.20;76.80
41457;DHT22;27197;51.752;5.220;2023-08-06T08:37:49;21.10;76.60
41457;DHT22;27197;51.752;5.220;2023-08-06T08:40:28;21.10;76.70
41457;DHT22;27197;51.752;5.220;2023-08-06T08:42:58;21.20;76.90
41457;DHT22;27197;51.752;5.220;2023-08-06T08:45:31;21.10;76.20
41457;DHT22;27197;51.752;5.220;2023-08-06T08:48:21;21.20;76.70
41457;DHT22;27197;51.752;5.220;2023-08-06T08:50:49;21.10;76.60
41457;DHT22;27197;51.752;5.220;2023-08-06T08:53:23;21.10;76.80
41457;DHT22;27197;51.752;5.220;2023-08-06T08:55:57;21.10;76.70
41457;DHT22;27197;51.752;5.220;2023-08-06T08:58:29;21.10;76.80
41457;DHT22;27197;51.752;5.220;2023-08-06T09:00:59;21.10;76.60
41457;DHT22;27197;51.752;5.220;2023-08-06T09:03:32;21.10;76.80
41457;DHT22;27197;51.752;5.220;2023-08-06T09:06:08;21.20;76.80
41457;DHT22;27197;51.752;5.220;2023-08-06T09:08:41;21.10;76.70
41457;DHT22;27197;51.752;5.220;2023-08-06T09:11:15;21.10;76.80
41457;DHT22;27197;51.752;5.220;2023-08-06T09:13:46;21.10;76.70
41457;DHT22;27197;51.752;5.220;2023-08-06T09:16:17;21.10;76.70
41457;DHT22;27197;51.752;5.220;2023-08-06T09:18:50;21.20;76.80
41457;DHT22;27197;51.752;5.220;2023-08-06T09:21:23;21.10;76.50
41457;DHT22;27197;51.752;5.220;2023-08-06T09:23:53;21.10;76.70
41457;DHT22;27197;51.752;5.220;2023-08-06T09:26:32;21.10;76.80
41457;DHT22;27197;51.752;5.220;2023-08-06T09:28:59;21.10;76.60
41457;DHT22;27197;51.752;5.220;2023-08-06T09:31:46;21.10;76.70
41457;DHT22;27197;51.752;5.220;2023-08-06T09:34:19;21.10;76.70
41457;DHT22;27197;51.752;5.220;2023-08-06T09:36:55;21.10;76.70
41457;DHT22;27197;51.752;5.220;2023-08-06T09:39:31;21.10;76.30
41457;DHT22;27197;51.752;5.220;2023-08-06T09:42:05;21.10;76.70
41457;DHT22;27197;51.752;5.220;2023-08-06T09:44:35;21.10;76.70
41457;DHT22;27197;51.752;5.220;2023-08-06T09:47:06;21.10;76.60
41457;DHT22;27197;51.752;5.220;2023-08-06T09:49:40;21.10;76.70
41457;DHT22;27197;51.752;5.220;2023-08-06T09:52:14;21.10;76.60
41457;DHT22;27197;51.752;5.220;2023-08-06T09:54:47;21.10;76.40
41457;DHT22;27197;51.752;5.220;2023-08-06T09:57:19;21.10;76.60
41457;DHT22;27197;51.752;5.220;2023-08-06T09:59:47;21.10;76.60
41457;DHT22;27197;51.752;5.220;2023-08-06T10:02:21;21.10;76.60
41457;DHT22;27197;51.752;5.220;2023-08-06T10:04:51;21.10;76.70
41457;DHT22;27197;51.752;5.220;2023-08-06T10:07:22;21.10;76.60
41457;DHT22;27197;51.752;5.220;2023-08-06T10:09:54;21.10;76.60
41457;DHT22;27197;51.752;5.220;2023-08-06T10:12:26;21.10;76.60
41457;DHT22;27197;51.752;5.220;2023-08-06T10:14:59;21.10;76.70
41457;DHT22;27197;51.752;5.220;2023-08-06T10:17:29;21.10;76.60
41457;DHT22;27197;51.752;5.220;2023-08-06T10:25:54;21.10;76.70
41457;DHT22;27197;51.752;5.220;2023-08-06T10:28:40;21.10;76.50
41457;DHT22;27197;51.752;5.220;2023-08-06T10:31:08;21.10;76.70
41457;DHT22;27197;51.752;5.220;2023-08-06T10:33:45;21.10;76.70
41457;DHT22;27197;51.752;5.220;2023-08-06T10:36:16;21.10;76.60
41457;DHT22;27197;51.752;5.220;2023-08-06T10:38:53;21.10;76.60
41457;DHT22;27197;51.752;5.220;2023-08-06T10:41:29;21.10;76.60
41457;DHT22;27197;51.752;5.220;2023-08-06T10:44:05;21.10;76.60
41457;DHT22;27197;51.752;5.220;2023-08-06T10:52:51;21.10;76.40
41457;DHT22;27197;51.752;5.220;2023-08-06T10:55:27;21.10;76.40
41457;DHT22;27197;51.752;5.220;2023-08-06T10:57:59;21.10;76.60
41457;DHT22;27197;51.752;5.220;2023-08-06T11:00:35;21.10;76.30
41457;DHT22;27197;51.752;5.220;2023-08-06T11:03:05;21.10;76.70
41457;DHT22;27197;51.752;5.220;2023-08-06T11:05:37;21.10;76.70
41457;DHT22;27197;51.752;5.220;2023-08-06T11:08:08;21.10;76.60
41457;DHT22;27197;51.752;5.220;2023-08-06T11:10:45;21.10;76.60
41457;DHT22;27197;51.752;5.220;2023-08-06T11:13:16;21.10;76.50
41457;DHT22;27197;51.752;5.220;2023-08-06T11:15:47;21.10;76.30
41457;DHT22;27197;51.752;5.220;2023-08-06T11:18:15;21.10;76.50
41457;DHT22;27197;51.752;5.220;2023-08-06T11:20:48;21.10;76.60
41457;DHT22;27197;51.752;5.220;2023-08-06T11:25:58;21.00;76.60
41457;DHT22;27197;51.752;5.220;2023-08-06T11:28:46;21.10;76.60
41457;DHT22;27197;51.752;5.220;2023-08-06T11:31:20;21.10;76.60
41457;DHT22;27197;51.752;5.220;2023-08-06T11:41:58;21.10;76.50
41457;DHT22;27197;51.752;5.220;2023-08-06T11:44:32;21.10;76.60
41457;DHT22;27197;51.752;5.220;2023-08-06T11:47:04;21.10;76.50
41457;DHT22;27197;51.752;5.220;2023-08-06T11:52:19;21.10;76.50
41457;DHT22;27197;51.752;5.220;2023-08-06T11:55:03;21.10;76.50
41457;DHT22;27197;51.752;5.220;2023-08-06T12:00:31;21.10;76.40
41457;DHT22;27197;51.752;5.220;2023-08-06T12:03:04;21.10;76.60
41457;DHT22;27197;51.752;5.220;2023-08-06T12:05:37;21.10;76.60
41457;DHT22;27197;51.752;5.220;2023-08-06T12:08:14;21.10;76.60
41457;DHT22;27197;51.752;5.220;2023-08-06T12:10:44;21.10;76.50
41457;DHT22;27197;51.752;5.220;2023-08-06T12:13:17;21.10;76.50
41457;DHT22;27197;51.752;5.220;2023-08-06T12:15:49;21.10;76.40
41457;DHT22;27197;51.752;5.220;2023-08-06T12:18:23;21.10;76.50
41457;DHT22;27197;51.752;5.220;2023-08-06T12:20:53;21.10;76.60
41457;DHT22;27197;51.752;5.220;2023-08-06T12:23:25;21.10;76.60
41457;DHT22;27197;51.752;5.220;2023-08-06T12:25:56;21.10;77.20
41457;DHT22;27197;51.752;5.220;2023-08-06T12:28:29;21.10;76.60
41457;DHT22;27197;51.752;5.220;2023-08-06T12:31:00;21.10;76.60
41457;DHT22;27197;51.752;5.220;2023-08-06T12:33:32;21.10;76.60
41457;DHT22;27197;51.752;5.220;2023-08-06T12:36:04;21.10;76.70
41457;DHT22;27197;51.752;5.220;2023-08-06T12:38:34;21.10;76.60
41457;DHT22;27197;51.752;5.220;2023-08-06T12:41:06;21.10;76.80
41457;DHT22;27197;51.752;5.220;2023-08-06T12:43:41;21.10;76.70
41457;DHT22;27197;51.752;5.220;2023-08-06T12:46:15;21.10;76.70
41457;DHT22;27197;51.752;5.220;2023-08-06T12:48:46;21.10;76.70
41457;DHT22;27197;51.752;5.220;2023-08-06T12:51:24;21.10;76.60
41457;DHT22;27197;51.752;5.220;2023-08-06T12:53:55;21.10;76.70
41457;DHT22;27197;51.752;5.220;2023-08-06T12:56:28;21.10;76.60
41457;DHT22;27197;51.752;5.220;2023-08-06T12:58:58;21.10;76.50
41457;DHT22;27197;51.752;5.220;2023-08-06T13:01:29;21.10;76.50
41457;DHT22;27197;51.752;5.220;2023-08-06T13:04:04;21.10;76.50
41457;DHT22;27197;51.752;5.220;2023-08-06T13:06:35;21.10;76.50
41457;DHT22;27197;51.752;5.220;2023-08-06T13:09:08;21.10;76.30
41457;DHT22;27197;51.752;5.220;2023-08-06T13:11:45;21.10;76.50
41457;DHT22;27197;51.752;5.220;2023-08-06T13:14:18;21.10;76.50
41457;DHT22;27197;51.752;5.220;2023-08-06T13:16:47;21.10;76.10
41457;DHT22;27197;51.752;5.220;2023-08-06T13:19:19;21.10;76.40
41457;DHT22;27197;51.752;5.220;2023-08-06T13:21:58;21.10;76.40
41457;DHT22;27197;51.752;5.220;2023-08-06T13:24:24;21.10;76.40
41457;DHT22;27197;51.752;5.220;2023-08-06T13:26:57;21.10;76.00
41457;DHT22;27197;51.752;5.220;2023-08-06T13:29:32;21.10;76.30
41457;DHT22;27197;51.752;5.220;2023-08-06T13:32:01;21.10;76.20
41457;DHT22;27197;51.752;5.220;2023-08-06T13:34:33;21.10;76.30
41457;DHT22;27197;51.752;5.220;2023-08-06T13:37:03;21.10;76.40
41457;DHT22;27197;51.752;5.220;2023-08-06T13:39:31;21.10;76.10
41457;DHT22;27197;51.752;5.220;2023-08-06T13:42:02;21.10;76.30
41457;DHT22;27197;51.752;5.220;2023-08-06T13:44:31;21.10;76.20
41457;DHT22;27197;51.752;5.220;2023-08-06T13:47:03;21.10;76.30
41457;DHT22;27197;51.752;5.220;2023-08-06T13:49:31;21.10;76.20
41457;DHT22;27197;51.752;5.220;2023-08-06T13:52:04;21.10;76.20
41457;DHT22;27197;51.752;5.220;2023-08-06T13:54:37;21.10;76.20
41457;DHT22;27197;51.752;5.220;2023-08-06T13:57:10;21.10;76.30
41457;DHT22;27197;51.752;5.220;2023-08-06T13:59:42;21.10;76.10
41457;DHT22;27197;51.752;5.220;2023-08-06T14:02:10;21.10;76.20
41457;DHT22;27197;51.752;5.220;2023-08-06T14:04:44;21.10;76.20
41457;DHT22;27197;51.752;5.220;2023-08-06T14:07:15;21.10;76.20
41457;DHT22;27197;51.752;5.220;2023-08-06T14:09:46;21.10;76.30
41457;DHT22;27197;51.752;5.220;2023-08-06T14:12:16;21.10;76.30
41457;DHT22;27197;51.752;5.220;2023-08-06T14:14:45;21.10;76.30
41457;DHT22;27197;51.752;5.220;2023-08-06T14:17:24;21.10;76.30
41457;DHT22;27197;51.752;5.220;2023-08-06T14:19:53;21.10;76.30
41457;DHT22;27197;51.752;5.220;2023-08-06T14:22:27;21.10;76.30
41457;DHT22;27197;51.752;5.220;2023-08-06T14:24:58;21.10;76.50
41457;DHT22;27197;51.752;5.220;2023-08-06T14:27:29;21.10;76.50
41457;DHT22;27197;51.752;5.220;2023-08-06T14:30:01;21.10;76.30
41457;DHT22;27197;51.752;5.220;2023-08-06T14:32:36;21.10;76.30
41457;DHT22;27197;51.752;5.220;2023-08-06T14:35:05;21.10;76.40
41457;DHT22;27197;51.752;5.220;2023-08-06T14:37:35;21.10;76.40
41457;DHT22;27197;51.752;5.220;2023-08-06T14:40:06;21.10;76.30
41457;DHT22;27197;51.752;5.220;2023-08-06T14:42:37;21.10;76.40
41457;DHT22;27197;51.752;5.220;2023-08-06T14:45:08;21.10;76.30
41457;DHT22;27197;51.752;5.220;2023-08-06T14:47:40;21.10;76.40
41457;DHT22;27197;51.752;5.220;2023-08-06T14:50:14;21.10;76.40
41457;DHT22;27197;51.752;5.220;2023-08-06T14:52:42;21.10;76.30
41457;DHT22;27197;51.752;5.220;2023-08-06T14:55:27;21.10;76.30
41457;DHT22;27197;51.752;5.220;2023-08-06T14:57:57;21.10;76.30
41457;DHT22;27197;51.752;5.220;2023-08-06T15:00:31;21.10;76.40
41457;DHT22;27197;51.752;5.220;2023-08-06T15:03:03;21.10;76.40
41457;DHT22;27197;51.752;5.220;2023-08-06T15:05:35;21.10;76.40
41457;DHT22;27197;51.752;5.220;2023-08-06T15:08:08;21.10;76.50
41457;DHT22;27197;51.752;5.220;2023-08-06T15:10:41;21.10;76.40
41457;DHT22;27197;51.752;5.220;2023-08-06T15:13:10;21.10;76.40
41457;DHT22;27197;51.752;5.220;2023-08-06T15:15:42;21.10;76.50
41457;DHT22;27197;51.752;5.220;2023-08-06T15:18:14;21.10;76.40
41457;DHT22;27197;51.752;5.220;2023-08-06T15:20:43;21.10;76.40
41457;DHT22;27197;51.752;5.220;2023-08-06T15:23:18;21.10;76.50
41457;DHT22;27197;51.752;5.220;2023-08-06T15:25:46;21.10;76.40
41457;DHT22;27197;51.752;5.220;2023-08-06T15:28:17;21.10;76.50
41457;DHT22;27197;51.752;5.220;2023-08-06T15:30:53;21.10;76.50
41457;DHT22;27197;51.752;5.220;2023-08-06T15:33:24;21.10;77.20
41457;DHT22;27197;51.752;5.220;2023-08-06T15:35:54;21.10;76.70
41457;DHT22;27197;51.752;5.220;2023-08-06T15:38:26;21.10;76.50
41457;DHT22;27197;51.752;5.220;2023-08-06T15:40:56;21.10;76.50
41457;DHT22;27197;51.752;5.220;2023-08-06T15:43:25;21.10;76.50
41457;DHT22;27197;51.752;5.220;2023-08-06T15:45:55;21.10;76.30
41457;DHT22;27197;51.752;5.220;2023-08-06T15:48:26;21.10;76.40
41457;DHT22;27197;51.752;5.220;2023-08-06T15:51:00;21.10;76.40
41457;DHT22;27197;51.752;5.220;2023-08-06T15:53:29;21.10;76.30
41457;DHT22;27197;51.752;5.220;2023-08-06T15:55:59;21.10;76.40
41457;DHT22;27197;51.752;5.220;2023-08-06T15:58:29;21.10;76.40
41457;DHT22;27197;51.752;5.220;2023-08-06T16:00:59;21.10;76.40
41457;DHT22;27197;51.752;5.220;2023-08-06T16:03:30;21.10;76.30
41457;DHT22;27197;51.752;5.220;2023-08-06T16:06:05;21.10;76.30
41457;DHT22;27197;51.752;5.220;2023-08-06T16:08:33;21.10;76.30
41457;DHT22;27197;51.752;5.220;2023-08-06T16:11:04;21.10;76.20
41457;DHT22;27197;51.752;5.220;2023-08-06T16:13:35;21.10;77.00
41457;DHT22;27197;51.752;5.220;2023-08-06T16:16:09;21.10;76.20
41457;DHT22;27197;51.752;5.220;2023-08-06T16:18:38;21.10;76.20
41457;DHT22;27197;51.752;5.220;2023-08-06T16:21:11;21.10;76.00
41457;DHT22;27197;51.752;5.220;2023-08-06T16:23:43;21.10;76.20
41457;DHT22;27197;51.752;5.220;2023-08-06T16:26:13;21.10;76.10
41457;DHT22;27197;51.752;5.220;2023-08-06T16:28:43;21.10;75.90
41457;DHT22;27197;51.752;5.220;2023-08-06T16:31:17;21.10;76.20
41457;DHT22;27197;51.752;5.220;2023-08-06T16:33:46;21.10;76.10